Main page
METAR-TAF:

METAR-TAF

Airports :

Graz Airport

Graz, Austria

latitude: 47-00N, longitude: 015-26E, elevation: 340 m

Current weather observation

The report was made 11 minutes ago, at 05:20 UTC
Wind 7 kt from the Northwest, varying between West and North
Temperature 21°C
Humidity 53%
Pressure 1017 hPa
Visibility 10 km or more
no clouds below 1500 m and no cumulonimbus

METAR: LOWG 180520Z 32007KT 280V010 CAVOK 21/11 Q1017 NOSIG

Time: 07:31 (05:31 UTC)

Forecast

The report was made 6 hours and 16 minutes ago, at 23:15 UTC
Forecast valid from 18 at 00 UTC to 18 at 24 UTC
Wind 6 kt from the North/Northwest
Visibility 10 km or more
Few clouds at a height of 5000 ft
Scattered clouds at a height of 10000 ft
Temporary
from 18 at 07 UTC to 18 at 17 UTC
Wind 15 kt from the North/Northwest with gusts up to 25 kt

TAF: LOWG 172315Z 1800/1824 33006KT 9999 FEW050 SCT100 TX26/1813Z TN15/1803Z TEMPO 1807/1817 34015G25KT

Weather observations and forecasts of more than 4000 airports (METAR and TAF reports).

The available stations are represented by yellow and red dots on the map.

Hover mouse over dot to see the name of the station.

Then click to see weather observations and forecasts.

To change the map : click on the green buttons with a black cross to zoom in, on the green button with a dash to zoom out, or on the green arrows for adjacent maps.


METAR-TAF: